createdAt,value
2019-02-06T00:01:38.603Z,60121.48
2019-02-06T00:04:04.828Z,60116.92
2019-02-06T00:06:54.511Z,60098.02
2019-02-06T00:09:20.843Z,60100.24
2019-02-06T00:11:47.004Z,60082.23
2019-02-06T00:14:13.564Z,60073.43
2019-02-06T00:16:39.689Z,60073.43
2019-02-06T00:19:05.975Z,60058.03
2019-02-06T00:21:32.187Z,60056.97
2019-02-06T00:23:58.416Z,60072.19
2019-02-06T00:26:24.643Z,60089.68
2019-02-06T00:28:50.871Z,60096.54
2019-02-06T00:31:17.087Z,60079.75
2019-02-06T00:33:43.315Z,60079.75
2019-02-06T00:36:09.444Z,60085.12
2019-02-06T00:38:35.678Z,60103.89
2019-02-06T00:41:01.904Z,60094.01
2019-02-06T00:43:28.022Z,60078.45
2019-02-06T00:48:41.751Z,60094.88
2019-02-06T00:51:07.968Z,60100.24
2019-02-06T00:53:53.964Z,60096.54
2019-02-06T00:56:20.098Z,60089.78
2019-02-06T00:58:46.332Z,60097.71
2019-02-06T01:01:12.563Z,60125.61
2019-02-06T01:06:16.461Z,60147.37
2019-02-06T01:11:45.633Z,60175.80
2019-02-06T01:14:11.771Z,60169.56
2019-02-06T01:16:37.895Z,60179.07
2019-02-06T01:19:05.951Z,60192.67
2019-02-06T01:21:32.190Z,60208.07
2019-02-06T01:23:58.447Z,60212.31
2019-02-06T01:26:24.589Z,60213.36
2019-02-06T01:28:50.725Z,60210.18
2019-02-06T01:34:04.536Z,60192.49
2019-02-06T01:36:30.652Z,60194.32
2019-02-06T01:38:56.888Z,60176.97
2019-02-06T01:41:23.005Z,60174.23
2019-02-06T01:43:49.243Z,60164.01
2019-02-06T01:46:15.472Z,60145.08
2019-02-06T01:48:41.588Z,60140.34
2019-02-06T01:51:07.723Z,60125.00
2019-02-06T01:53:33.839Z,60115.14
2019-02-06T01:56:01.982Z,60102.98
2019-02-06T01:58:28.199Z,60089.62
2019-02-06T02:03:47.808Z,60066.04
2019-02-06T02:06:13.939Z,60055.19
2019-02-06T02:11:29.564Z,60044.59
2019-02-06T02:13:55.796Z,60041.24
2019-02-06T02:16:21.954Z,60039.01
2019-02-06T02:18:48.083Z,60017.80
2019-02-06T02:21:14.235Z,60023.16
2019-02-06T02:23:40.361Z,60014.83
2019-02-06T02:26:06.473Z,60029.26
2019-02-06T02:28:32.709Z,60046.91
2019-02-06T02:30:58.943Z,60026.78
2019-02-06T02:33:25.105Z,59994.00
2019-02-06T02:35:51.191Z,59983.52
2019-02-06T02:38:17.412Z,59967.88
2019-02-06T02:40:43.643Z,59952.07
2019-02-06T02:43:09.952Z,59959.86
2019-02-06T02:45:36.185Z,59964.43
2019-02-06T02:48:02.399Z,59950.06
2019-02-06T02:50:28.635Z,59970.41
2019-02-06T02:52:54.782Z,59962.51
2019-02-06T02:55:20.909Z,59940.29
2019-02-06T02:57:47.148Z,59930.80
2019-02-06T03:00:52.886Z,59932.46
2019-02-06T03:03:38.855Z,59919.06
2019-02-06T03:06:05.391Z,59915.39
2019-02-06T03:08:31.636Z,59916.65
2019-02-06T03:10:57.847Z,59907.81
2019-02-06T03:13:24.100Z,59911.20
2019-02-06T03:15:50.315Z,59912.96
2019-02-06T03:18:16.468Z,59892.78
2019-02-06T03:20:42.724Z,59892.10
2019-02-06T03:23:08.856Z,59895.68
2019-02-06T03:25:35.068Z,59893.58
2019-02-06T03:28:01.306Z,59900.48
2019-02-06T03:30:27.449Z,59881.91
2019-02-06T03:32:53.686Z,59899.32
2019-02-06T03:35:19.801Z,59936.15
2019-02-06T03:37:46.032Z,59952.49
2019-02-06T03:40:53.558Z,59948.91
2019-02-06T03:46:14.141Z,59932.28
2019-02-06T03:48:42.187Z,59917.29
2019-02-06T03:51:08.309Z,59913.29
2019-02-06T03:53:34.540Z,59891.99
2019-02-06T03:56:00.770Z,59882.51
2019-02-06T03:58:27.013Z,59874.95
2019-02-06T04:00:53.235Z,59882.93
2019-02-06T04:03:19.396Z,59864.42
2019-02-06T04:05:45.530Z,59852.25
2019-02-06T04:08:11.775Z,59867.11
2019-02-06T04:10:39.811Z,59872.92
2019-02-06T04:13:06.033Z,59844.52
2019-02-06T04:15:32.166Z,59844.36
2019-02-06T04:17:58.299Z,59852.29
2019-02-06T04:20:24.416Z,59864.48
2019-02-06T04:22:50.555Z,59861.34
2019-02-06T04:25:16.784Z,59852.91
2019-02-06T04:27:42.927Z,59845.02
2019-02-06T04:33:24.813Z,59844.09
2019-02-06T04:35:52.939Z,59836.37
2019-02-06T04:38:19.076Z,59832.13
2019-02-06T04:40:45.292Z,59821.55
2019-02-06T04:43:11.567Z,59826.70
2019-02-06T04:45:37.685Z,59823.54
2019-02-06T04:48:03.901Z,59813.83
2019-02-06T04:50:30.028Z,59818.22
2019-02-06T04:52:56.146Z,59828.64
2019-02-06T04:55:22.373Z,59808.73
2019-02-06T04:57:48.603Z,59809.61
2019-02-06T05:00:34.580Z,59805.22
2019-02-06T05:03:00.705Z,59829.94
2019-02-06T05:05:26.945Z,59811.77
2019-02-06T05:07:53.159Z,59812.30
2019-02-06T05:10:19.295Z,59822.89
2019-02-06T05:12:47.446Z,59812.36
2019-02-06T05:15:54.981Z,59803.76
2019-02-06T05:18:21.221Z,59808.15
2019-02-06T05:20:49.360Z,59803.87
2019-02-06T05:23:15.588Z,59810.71
2019-02-06T05:25:41.824Z,59815.30
2019-02-06T05:28:07.945Z,59822.89
2019-02-06T05:30:34.075Z,59814.22
2019-02-06T05:33:00.315Z,59815.46
2019-02-06T05:35:26.440Z,59831.84
2019-02-06T05:37:52.606Z,59826.87
2019-02-06T05:40:18.808Z,59838.68
2019-02-06T05:42:46.941Z,59841.86
2019-02-06T05:45:54.490Z,59829.54
2019-02-06T05:48:20.611Z,59818.79
2019-02-06T05:50:48.656Z,59811.80
2019-02-06T05:53:14.884Z,59796.98
2019-02-06T05:55:41.020Z,59812.36
2019-02-06T05:58:07.244Z,59814.46
2019-02-06T06:03:07.212Z,59830.03
2019-02-06T06:05:33.348Z,59837.09
2019-02-06T06:07:59.590Z,59828.62
2019-02-06T06:10:26.012Z,59828.09
2019-02-06T06:12:52.122Z,59832.33
2019-02-06T06:15:59.673Z,59835.35
2019-02-06T06:18:25.897Z,59829.74
2019-02-06T06:20:52.028Z,59814.07
2019-02-06T06:23:18.274Z,59823.95
2019-02-06T06:25:44.517Z,59807.55
2019-02-06T06:28:10.628Z,59789.59
2019-02-06T06:30:36.761Z,59800.18
2019-02-06T06:33:02.987Z,59808.68
2019-02-06T06:35:29.192Z,59798.44
2019-02-06T06:38:01.259Z,59792.42
2019-02-06T06:40:23.465Z,59818.68
2019-02-06T06:42:49.807Z,59821.84
2019-02-06T06:45:57.353Z,59801.36
2019-02-06T06:48:23.612Z,59813.87
2019-02-06T06:50:49.836Z,59831.84
2019-02-06T06:53:16.119Z,59832.33
2019-02-06T06:55:42.400Z,59849.75
2019-02-06T06:58:08.689Z,59847.23
2019-02-06T07:00:34.816Z,59870.23
2019-02-06T07:03:01.096Z,59861.90
2019-02-06T07:05:27.295Z,59887.37
2019-02-06T07:08:34.846Z,59934.05
2019-02-06T07:11:01.080Z,59961.45
2019-02-06T07:13:27.332Z,59945.50
2019-02-06T07:15:53.605Z,59990.47
2019-02-06T07:18:21.662Z,60007.89
2019-02-06T07:20:47.888Z,60027.94
2019-02-06T07:23:14.029Z,60015.47
2019-02-06T07:25:40.141Z,60020.05
2019-02-06T07:28:06.299Z,60040.58
2019-02-06T07:31:13.819Z,60030.76
2019-02-06T07:33:40.163Z,60063.81
2019-02-06T07:36:06.293Z,60088.54
2019-02-06T07:38:32.423Z,60112.41
2019-02-06T07:40:58.547Z,60127.92
2019-02-06T07:43:24.686Z,60161.09
2019-02-06T07:45:50.805Z,60194.86
2019-02-06T07:48:18.832Z,60208.17
2019-02-06T07:50:44.976Z,60245.11
2019-02-06T07:53:11.218Z,60259.91
2019-02-06T07:55:37.336Z,60273.14
2019-02-06T07:58:03.461Z,60279.06
2019-02-06T08:00:29.680Z,60283.65
2019-02-06T08:03:37.330Z,60300.15
2019-02-06T08:06:03.558Z,60315.67
2019-02-06T08:08:36.291Z,60347.29
2019-02-06T08:10:57.951Z,60355.85
2019-02-06T08:13:24.204Z,60378.02
2019-02-06T08:15:50.426Z,60379.09
2019-02-06T08:18:18.631Z,60392.87
2019-02-06T08:20:44.864Z,60387.65
2019-02-06T08:23:11.106Z,60406.66
2019-02-06T08:25:37.220Z,60409.40
2019-02-06T08:28:03.454Z,60427.41
2019-02-06T08:31:10.977Z,60455.44
2019-02-06T08:33:37.129Z,60460.20
2019-02-06T08:36:03.251Z,60464.45
2019-02-06T08:38:29.492Z,60469.04
2019-02-06T08:40:55.604Z,60477.72
2019-02-06T08:43:21.831Z,60476.76
2019-02-06T08:45:49.861Z,60499.49
2019-02-06T08:48:16.231Z,60506.92
2019-02-06T08:50:42.509Z,60514.16
2019-02-06T08:53:08.732Z,60522.84
2019-02-06T08:55:34.866Z,60527.76
2019-02-06T09:01:14.771Z,60560.02
2019-02-06T09:03:40.895Z,60573.00
2019-02-06T09:06:07.040Z,60572.06
2019-02-06T09:08:33.317Z,60587.65
2019-02-06T09:10:59.544Z,60570.66
2019-02-06T09:16:15.177Z,60614.81
2019-02-06T09:18:41.323Z,60614.56
2019-02-06T09:21:07.556Z,60616.60
2019-02-06T09:23:33.683Z,60612.09
2019-02-06T09:25:59.816Z,60605.52
2019-02-06T09:28:27.941Z,60599.14
2019-02-06T09:30:54.214Z,60588.27
2019-02-06T09:33:20.424Z,60597.74
2019-02-06T09:38:40.796Z,60597.74
2019-02-06T09:41:07.245Z,60606.41
2019-02-06T09:43:33.426Z,60596.76
2019-02-06T09:46:00.120Z,60614.81
2019-02-06T09:48:26.429Z,60628.48
2019-02-06T09:50:52.693Z,60641.30
2019-02-06T09:53:18.814Z,60638.59
2019-02-06T09:55:44.947Z,60660.46
2019-02-06T09:58:11.181Z,60657.82
2019-02-06T10:01:21.337Z,60674.37
2019-02-06T10:03:47.116Z,60686.08
2019-02-06T10:06:14.883Z,60697.81
2019-02-06T10:08:41.120Z,60707.62
2019-02-06T10:11:07.440Z,60702.91
2019-02-06T10:13:33.584Z,60714.80
2019-02-06T10:15:59.811Z,60732.80
2019-02-06T10:21:20.901Z,60753.04
2019-02-06T10:23:47.227Z,60740.52
2019-02-06T10:26:13.459Z,60745.06
2019-02-06T10:28:39.582Z,60743.46
2019-02-06T10:31:05.816Z,60732.20
2019-02-06T10:33:32.049Z,60743.99
2019-02-06T10:35:58.265Z,60753.04
2019-02-06T10:38:24.498Z,60744.33
2019-02-06T10:40:50.716Z,60780.21
2019-02-06T10:43:18.854Z,60788.18
2019-02-06T10:45:45.072Z,60794.06
2019-02-06T10:48:11.300Z,60800.45
2019-02-06T10:53:51.292Z,60811.11
2019-02-06T10:56:17.507Z,60819.44
2019-02-06T10:58:43.770Z,60828.69
2019-02-06T11:01:09.888Z,60826.11
2019-02-06T11:03:36.019Z,60842.02
2019-02-06T11:06:02.354Z,60852.66
2019-02-06T11:08:28.593Z,60870.79
2019-02-06T11:10:56.628Z,60870.01
2019-02-06T11:13:22.754Z,60884.65
2019-02-06T11:15:49.067Z,60901.71
2019-02-06T11:18:15.295Z,60903.84
2019-02-06T11:20:41.524Z,60933.73
2019-02-06T11:23:07.687Z,60944.41
2019-02-06T11:25:33.980Z,60944.66
2019-02-06T11:28:00.122Z,60963.61
2019-02-06T11:30:47.886Z,60980.13
2019-02-06T11:33:14.132Z,60987.88
2019-02-06T11:35:40.243Z,61002.03
2019-02-06T11:38:06.378Z,60984.93
2019-02-06T11:40:32.697Z,61000.95
2019-02-06T11:42:58.940Z,60985.73
2019-02-06T11:45:46.804Z,61000.95
2019-02-06T11:48:13.145Z,61004.18
2019-02-06T11:53:27.022Z,60982.24
2019-02-06T11:55:53.244Z,60980.13
2019-02-06T11:58:19.467Z,60976.93
2019-02-06T12:01:05.569Z,60971.06
2019-02-06T12:03:31.822Z,60963.61
2019-02-06T12:05:58.064Z,60958.28
2019-02-06T12:08:26.197Z,60950.00
2019-02-06T12:10:52.470Z,60945.87
2019-02-06T12:13:18.649Z,60946.99
2019-02-06T12:15:44.779Z,60955.60
2019-02-06T12:18:10.906Z,60954.54
2019-02-06T12:20:37.067Z,60949.20
2019-02-06T12:23:10.259Z,60934.85
2019-02-06T12:25:36.479Z,60927.36
2019-02-06T12:28:05.292Z,60941.20
2019-02-06T12:31:14.075Z,60932.30
2019-02-06T12:33:40.300Z,60952.75
2019-02-06T12:36:08.434Z,60938.80
2019-02-06T12:38:34.659Z,60944.47
2019-02-06T12:41:00.896Z,60944.47
2019-02-06T12:43:27.131Z,60950.80
2019-02-06T12:45:53.387Z,60944.41
2019-02-06T12:48:19.500Z,60931.21
2019-02-06T12:50:45.679Z,60925.72
2019-02-06T12:53:11.897Z,60915.59
2019-02-06T12:56:19.434Z,60889.64
2019-02-06T12:58:45.659Z,60897.45
2019-02-06T13:01:11.891Z,60879.91
2019-02-06T13:03:38.016Z,60883.58
2019-02-06T13:06:45.569Z,60866.05
2019-02-06T13:09:11.887Z,60866.45
2019-02-06T13:12:19.429Z,60869.18
2019-02-06T13:14:45.650Z,60862.25
2019-02-06T13:17:11.883Z,60848.70
2019-02-06T13:19:38.102Z,60852.12
2019-02-06T13:22:04.236Z,60847.13
2019-02-06T13:24:30.466Z,60835.14
2019-02-06T13:26:56.691Z,60838.82
2019-02-06T13:29:23.114Z,60823.63
2019-02-06T13:31:49.437Z,60827.62
2019-02-06T13:34:15.650Z,60821.56
2019-02-06T13:36:41.882Z,60807.10
2019-02-06T13:42:21.382Z,60788.80
2019-02-06T13:44:47.513Z,60794.57
2019-02-06T13:47:13.648Z,60781.01
2019-02-06T13:49:39.774Z,60774.62
2019-02-06T13:52:05.900Z,60777.53
2019-02-06T13:54:32.185Z,60771.14
2019-02-06T13:57:00.320Z,60754.57
2019-02-06T13:59:26.536Z,60759.99
2019-02-06T14:01:52.777Z,60748.25
2019-02-06T14:04:18.998Z,60741.87
2019-02-06T14:06:45.231Z,60735.46
2019-02-06T14:11:59.070Z,60706.30
2019-02-06T14:14:26.986Z,60701.89
2019-02-06T14:16:53.336Z,60689.11
2019-02-06T14:19:19.559Z,60681.68
2019-02-06T14:21:45.818Z,60685.47
2019-02-06T14:24:53.393Z,60677.48
2019-02-06T14:30:59.447Z,60653.85
2019-02-06T14:34:05.374Z,60645.53
2019-02-06T14:46:25.760Z,60612.09
2019-02-06T14:52:31.797Z,60595.09
2019-02-06T14:55:37.547Z,60577.64
2019-02-06T15:04:57.384Z,60550.34
2019-02-06T15:08:03.687Z,60548.79
2019-02-06T15:11:19.314Z,60537.96
2019-02-06T15:14:19.027Z,60537.31
2019-02-06T15:17:24.792Z,60520.88
2019-02-06T15:20:30.554Z,60502.29
2019-02-06T15:23:36.617Z,60500.55
2019-02-06T15:32:56.103Z,60454.46
2019-02-06T15:36:01.853Z,60441.47
2019-02-06T15:42:21.787Z,60438.27
2019-02-06T15:45:27.523Z,60434.75
2019-02-06T15:48:35.075Z,60428.39
2019-02-06T15:51:40.820Z,60414.54
2019-02-06T15:57:40.203Z,60415.67
2019-02-06T16:07:00.046Z,60356.14
2019-02-06T16:10:07.593Z,60352.08
2019-02-06T16:13:13.328Z,60358.34
2019-02-06T16:16:19.364Z,60359.41
2019-02-06T16:19:25.037Z,60352.34
2019-02-06T16:28:32.297Z,60328.75
2019-02-06T16:31:38.056Z,60306.20
2019-02-06T16:37:45.016Z,60306.50
2019-02-06T16:40:50.871Z,60301.90
2019-02-06T16:43:56.796Z,60294.80
2019-02-06T16:47:02.738Z,60300.15
2019-02-06T16:53:22.336Z,60272.29
2019-02-06T17:05:31.515Z,60273.09
2019-02-06T17:08:30.191Z,60278.96
2019-02-06T17:11:35.927Z,60249.70
2019-02-06T17:20:36.090Z,60250.41
2019-02-06T17:26:42.537Z,60249.88
2019-02-06T17:29:48.269Z,60241.50
2019-02-06T17:32:55.815Z,60264.87
2019-02-06T17:39:23.802Z,60225.37
2019-02-06T17:42:23.588Z,60218.86
2019-02-06T17:45:30.072Z,60225.89
2019-02-06T17:48:35.861Z,60204.04
2019-02-06T17:51:41.624Z,60221.30
2019-02-06T17:54:47.360Z,60198.99
2019-02-06T17:57:13.612Z,60194.86
2019-02-06T17:59:39.827Z,60161.93
2019-02-06T18:02:06.168Z,60176.34
2019-02-06T18:04:34.317Z,60171.74
2019-02-06T18:07:00.560Z,60160.05
2019-02-06T18:09:26.795Z,60148.43
2019-02-06T18:11:53.048Z,60139.05
2019-02-06T18:14:19.369Z,60154.14
2019-02-06T18:16:45.589Z,60131.62
2019-02-06T18:19:11.715Z,60158.37
2019-02-06T18:21:37.950Z,60178.98
2019-02-06T18:24:04.176Z,60198.55
2019-02-06T18:26:30.415Z,60214.95
2019-02-06T18:28:56.532Z,60220.77
2019-02-06T18:31:22.758Z,60216.02
2019-02-06T18:33:48.931Z,60196.88
2019-02-06T18:36:15.047Z,60203.25
2019-02-06T18:38:46.864Z,60214.42
2019-02-06T18:41:09.399Z,60215.05
2019-02-06T18:43:35.701Z,60231.17
2019-02-06T18:46:01.963Z,60239.82
2019-02-06T18:49:09.522Z,60232.51
2019-02-06T18:52:20.336Z,60244.57
2019-02-06T18:54:45.186Z,60242.89
2019-02-06T18:57:11.311Z,60295.93
2019-02-06T18:59:37.448Z,60312.79
2019-02-06T19:02:03.887Z,60334.06
2019-02-06T19:04:30.149Z,60337.24
2019-02-06T19:06:56.450Z,60354.18
2019-02-06T19:09:22.563Z,60375.18
2019-02-06T19:11:48.783Z,60372.47
2019-02-06T19:14:16.828Z,60382.80
2019-02-06T19:16:43.048Z,60376.52
2019-02-06T19:19:09.292Z,60380.96
2019-02-06T19:21:35.405Z,60391.62
2019-02-06T19:24:01.556Z,60405.59
2019-02-06T19:26:27.778Z,60424.16
2019-02-06T19:28:54.017Z,60435.27
2019-02-06T19:31:20.135Z,60442.16
2019-02-06T19:33:46.264Z,60444.98
2019-02-06T19:36:12.387Z,60453.30
2019-02-06T19:38:40.449Z,60453.84
2019-02-06T19:41:06.565Z,60465.52
2019-02-06T19:43:32.798Z,60473.76
2019-02-06T19:45:58.933Z,60489.94
2019-02-06T19:48:25.054Z,60500.55
2019-02-06T19:50:51.185Z,60507.46
2019-02-06T19:53:17.409Z,60495.08
2019-02-06T19:55:43.542Z,60519.66
2019-02-06T20:01:23.297Z,60530.26
2019-02-06T20:03:49.516Z,60535.85
2019-02-06T20:06:35.500Z,60552.58
2019-02-06T20:09:01.616Z,60558.95
2019-02-06T20:11:27.848Z,60567.46
2019-02-06T20:13:54.069Z,60574.88
2019-02-06T20:16:20.306Z,60570.64
2019-02-06T20:18:46.520Z,60573.11
2019-02-06T20:21:12.775Z,60583.39
2019-02-06T20:23:38.922Z,60572.63
2019-02-06T20:26:05.048Z,60591.88
2019-02-06T20:28:31.273Z,60603.05
2019-02-06T20:30:59.316Z,60608.91
2019-02-06T20:33:25.532Z,60613.83
2019-02-06T20:35:51.666Z,60615.55
2019-02-06T20:38:17.783Z,60626.95
2019-02-06T20:40:44.020Z,60623.51
2019-02-06T20:43:21.479Z,60635.08
2019-02-06T20:45:38.398Z,60642.91
2019-02-06T20:48:04.720Z,60637.15
2019-02-06T20:50:51.640Z,60640.34
2019-02-06T20:53:18.752Z,60653.01
2019-02-06T20:55:44.875Z,60649.91
2019-02-06T20:58:11.113Z,60657.69
2019-02-06T21:01:18.657Z,60671.64
2019-02-06T21:03:44.885Z,60668.53
2019-02-06T21:06:11.016Z,60684.40
2019-02-06T21:08:37.239Z,60683.08
2019-02-06T21:11:03.482Z,60698.77
2019-02-06T21:13:33.214Z,60695.30
2019-02-06T21:15:57.656Z,60690.97
2019-02-06T21:18:23.979Z,60696.91
2019-02-06T21:20:51.860Z,60715.80
2019-02-06T21:23:18.250Z,60719.52
2019-02-06T21:25:44.393Z,60712.68
2019-02-06T21:28:10.622Z,60715.87
2019-02-06T21:33:50.267Z,60737.40
2019-02-06T21:36:16.492Z,60739.47
2019-02-06T21:38:42.619Z,60753.57
2019-02-06T21:41:08.847Z,60755.71
2019-02-06T21:43:43.910Z,60749.05
2019-02-06T21:46:44.525Z,60742.06
2019-02-06T21:49:10.767Z,60751.17
2019-02-06T21:51:36.880Z,60765.83
2019-02-06T21:54:04.926Z,60759.70
2019-02-06T21:56:31.151Z,60755.36
2019-02-06T21:58:57.281Z,60775.23
2019-02-06T22:01:23.406Z,60768.75
2019-02-06T22:03:49.639Z,60779.68
2019-02-06T22:06:15.856Z,60786.06
2019-02-06T22:08:41.988Z,60779.75
2019-02-06T22:11:08.113Z,60786.60
2019-02-06T22:13:36.263Z,60771.15
2019-02-06T22:16:02.583Z,60789.72
2019-02-06T22:18:28.851Z,60798.12
2019-02-06T22:20:55.225Z,60804.18
2019-02-06T22:23:21.491Z,60811.64
2019-02-06T22:25:47.743Z,60814.30
2019-02-06T22:28:14.023Z,60816.96
2019-02-06T22:30:40.307Z,60821.77
2019-02-06T22:33:06.668Z,60813.51
2019-02-06T22:35:32.918Z,60824.76
2019-02-06T22:37:59.166Z,60832.94
2019-02-06T22:41:06.714Z,60826.94
2019-02-06T22:43:32.986Z,60841.71
2019-02-06T22:45:59.243Z,60849.46
2019-02-06T22:48:25.519Z,60857.98
2019-02-06T22:50:51.776Z,60853.27
2019-02-06T22:53:18.043Z,60862.78
2019-02-06T22:55:44.308Z,60857.54
2019-02-06T22:58:10.559Z,60865.45
2019-02-06T23:01:18.212Z,60864.91
2019-02-06T23:03:44.487Z,60877.22
2019-02-06T23:09:45.628Z,60879.31
2019-02-06T23:12:11.883Z,60882.32
2019-02-06T23:14:38.156Z,60888.90
2019-02-06T23:20:11.875Z,60890.05
2019-02-06T23:22:38.130Z,60902.69
2019-02-06T23:25:45.685Z,60915.92
2019-02-06T23:28:12.265Z,60915.51
2019-02-06T23:30:38.677Z,60930.53
2019-02-06T23:33:04.939Z,60932.47
2019-02-06T23:35:31.201Z,60943.33
2019-02-06T23:37:57.547Z,60949.73
2019-02-06T23:40:23.844Z,60952.93
2019-02-06T23:42:50.088Z,60947.32
2019-02-06T23:45:16.383Z,60944.39
2019-02-06T23:47:42.735Z,60961.38
2019-02-06T23:50:28.742Z,60975.34
2019-02-06T23:52:55.008Z,60969.00
2019-02-06T23:55:21.271Z,60986.55
2019-02-06T23:57:47.531Z,60990.29
